Costa Victoria — IBLC — position and weather

sailwx.info

Track history (hours):
 
Tides and Currents Weather Stations Pressure Air Temp Water Temp Dewpoint Dewpoint Depression Visibility Wind Speed Wind Dir Waves Ship Positions

Costa Victoria

Last reported at 2019-Apr-26 03:30 UTC. Time now 2019-Apr-26 03:44 UTC.
Position N 45°08' E 012°52'.

Length 252 m; draft 8.1 m.

Type: Passenger vessel. MMSI: 247109000.

Date/timePositionNaut miles runAvg speedWind from/ knotsBaromVisibWave heightAir tempDewpointWater temp
2019-Apr-26 03:30N 45°08' E 012°52'816.3
2019-Apr-26 03:00N 45°05' E 013°03'917.8
2019-Apr-26 02:30N 45°01' E 013°14'917.8
2019-Apr-26 02:00N 44°54' E 013°23'918.3
2019-Apr-26 01:30N 44°47' E 013°30'1018.3
2019-Apr-26 00:59N 44°39' E 013°37'917.9
2019-Apr-26 00:30N 44°31' E 013°44'1320.1
2019-Apr-25 23:52N 44°21' E 013°54'720.2
2019-Apr-25 23:30N 44°15' E 013°59'1720.1
2019-Apr-25 22:41N 44°01' E 014°13'18 0.4
2019-Apr-23 23:41N 43°45' E 014°01'820.3
2019-Apr-23 23:18N 43°51' E 013°54'620.6
2019-Apr-23 22:59N 43°54' E 013°46'1020.5
2019-Apr-23 22:30N 43°59' E 013°35'1020.1
2019-Apr-23 22:00N 44°05' E 013°23'1019.5
2019-Apr-23 21:30N 44°11' E 013°13'1019.4
2019-Apr-23 21:00N 44°21' E 013°09'1019.2
2019-Apr-23 20:30N 44°30' E 013°04'1019.1
2019-Apr-23 20:00N 44°39' E 013°00'918.8
2019-Apr-23 19:30N 44°48' E 012°56'918.8
2019-Apr-23 19:00N 44°56' E 012°49'918.7
2019-Apr-23 18:30N 45°04' E 012°43'918.0
2019-Apr-23 18:00N 45°10' E 012°34'817.0
2019-Apr-23 17:30N 45°18' E 012°30'612.4
2019-Apr-23 17:00N 45°24' E 012°28'4 7.9
2019-Apr-23 16:31N 45°26' E 012°23'2 4.6
2019-Apr-23 16:00N 45°26' E 012°20'1 2.0
2019-Apr-23 15:28N 45°26' E 012°19'0 0.0
2019-Apr-23 14:58N 45°26' E 012°19'0 0.0
2019-Apr-23 14:22N 45°26' E 012°19'0 0.0
2019-Apr-23 13:58N 45°26' E 012°19'0 0.0
2019-Apr-23 13:28N 45°26' E 012°19'0 0.0
2019-Apr-23 12:58N 45°26' E 012°19'0 0.0
2019-Apr-23 12:28N 45°26' E 012°19'0 0.0
2019-Apr-23 11:58N 45°26' E 012°19'0 0.0
2019-Apr-23 11:28N 45°26' E 012°19'0 0.0
2019-Apr-23 10:58N 45°26' E 012°19'0 0.0
2019-Apr-23 10:28N 45°26' E 012°19'0 0.0
2019-Apr-23 09:58N 45°26' E 012°19'0 0.0
2019-Apr-23 09:28N 45°26' E 012°19'0 0.0
2019-Apr-23 08:58N 45°26' E 012°19'0 0.0
2019-Apr-23 08:25N 45°26' E 012°19'0 0.0
2019-Apr-23 07:55N 45°26' E 012°19'0 0.0
2019-Apr-23 07:28N 45°26' E 012°19'0 0.0
2019-Apr-23 06:58N 45°26' E 012°19'0 0.0
2019-Apr-23 06:28N 45°26' E 012°19'0 0.0
2019-Apr-23 05:58N 45°26' E 012°19'0 0.0
2019-Apr-23 05:28N 45°26' E 012°19'0 0.0
2019-Apr-23 04:58N 45°26' E 012°19'0 0.0
2019-Apr-23 04:30N 45°26' E 012°19'1 1.8
2019-Apr-23 04:00N 45°26' E 012°20'2 4.8
2019-Apr-23 03:30N 45°26' E 012°23'4 8.4
2019-Apr-23 03:00N 45°24' E 012°28'713.0
2019-Apr-23 02:30N 45°19' E 012°34'815.3
2019-Apr-23 02:01N 45°13' E 012°40'816.3
2019-Apr-23 01:30N 45°07' E 012°49'816.4
2019-Apr-23 01:00N 44°60' E 012°53'816.7
2019-Apr-23 00:30N 44°52' E 012°58'918.9
2019-Apr-23 00:00N 44°44' E 013°03'1119.0
2019-Apr-22 23:27N 44°34' E 013°09'  
2019-Apr-20 00:43N 43°31' E 014°20'1720.6
2019-Apr-19 23:54N 43°44' E 014°04'1020.6
2019-Apr-19 23:25N 43°51' E 013°54'3020.5
2019-Apr-19 21:58N 44°07' E 013°20'919.6
2019-Apr-19 21:30N 44°14' E 013°12'1020.3
2019-Apr-19 21:00N 44°24' E 013°07'1020.2
2019-Apr-19 20:30N 44°33' E 013°03'1020.1
2019-Apr-19 20:00N 44°43' E 012°59'1019.9
2019-Apr-19 19:30N 44°52' E 012°53'1019.9
2019-Apr-19 19:00N 45°01' E 012°47'917.5
2019-Apr-19 18:30N 45°08' E 012°39'816.6
2019-Apr-19 18:00N 45°13' E 012°31'815.3
2019-Apr-19 17:30N 45°21' E 012°30'5 9.8
2019-Apr-19 17:00N 45°25' E 012°26'3 5.7
2019-Apr-19 16:30N 45°25' E 012°22'3 5.2
2019-Apr-19 16:00N 45°26' E 012°18'0 0.9
2019-Apr-19 15:28N 45°26' E 012°19'0 0.0
2019-Apr-19 14:58N 45°26' E 012°19'0 0.0
2019-Apr-19 14:28N 45°26' E 012°19'0 0.0
2019-Apr-19 13:58N 45°26' E 012°19'0 0.0
2019-Apr-19 13:28N 45°26' E 012°19'0 0.0
2019-Apr-19 12:58N 45°26' E 012°19'0 0.0
2019-Apr-19 12:28N 45°26' E 012°19'0 0.0
2019-Apr-19 11:58N 45°26' E 012°19'0 0.0
2019-Apr-19 11:28N 45°26' E 012°19'0 0.0
2019-Apr-19 10:58N 45°26' E 012°19'0 0.0
2019-Apr-19 10:28N 45°26' E 012°19'0 0.0
2019-Apr-19 09:58N 45°26' E 012°19'0 0.0
2019-Apr-19 09:28N 45°26' E 012°19'0 0.0
2019-Apr-19 08:58N 45°26' E 012°19'0 0.0
2019-Apr-19 08:28N 45°26' E 012°19'0 0.0
2019-Apr-19 07:58N 45°26' E 012°19'0 0.0
2019-Apr-19 07:28N 45°26' E 012°19'0 0.0
2019-Apr-19 06:58N 45°26' E 012°19'0 0.0
2019-Apr-19 06:28N 45°26' E 012°19'1 2.5
2019-Apr-19 06:00N 45°26' E 012°20'3 5.2
2019-Apr-19 05:30N 45°26' E 012°24'4 8.0
2019-Apr-19 05:00N 45°24' E 012°29'713.7
2019-Apr-19 04:31N 45°18' E 012°34'816.6
2019-Apr-19 04:01N 45°12' E 012°41'917.5
2019-Apr-19 03:31N 45°07' E 012°51'917.7
2019-Apr-19 03:01N 45°03' E 013°02'917.7
2019-Apr-19 02:31N 44°59' E 013°13'917.1
2019-Apr-19 02:01N 44°54' E 013°23'918.0
2019-Apr-19 01:31N 44°46' E 013°30'1020.0
2019-Apr-19 01:00N 44°38' E 013°38'2120.1
2019-Apr-18 23:59N 44°21' E 013°54'41 0.9
2019-Apr-16 23:47N 43°41' E 014°07'517.8
2019-Apr-16 23:30N 43°44' E 014°03'1019.6
2019-Apr-16 23:00N 43°51' E 013°53'1020.2
2019-Apr-16 22:30N 43°57' E 013°42'1020.1
2019-Apr-16 22:00N 44°03' E 013°30'1020.1
2019-Apr-16 21:30N 44°08' E 013°19'1019.1
2019-Apr-16 21:00N 44°16' E 013°11'1020.0
2019-Apr-16 20:30N 44°26' E 013°06'1119.9
2019-Apr-16 19:59N 44°35' E 013°00'919.8
2019-Apr-16 19:30N 44°44' E 012°57'1019.7
2019-Apr-16 19:00N 44°53' E 012°50'918.6
2019-Apr-16 18:30N 45°01' E 012°45'816.3
2019-Apr-16 18:00N 45°08' E 012°39'816.1
2019-Apr-16 17:30N 45°14' E 012°31'815.9
2019-Apr-16 17:00N 45°22' E 012°30'5 9.5
2019-Apr-16 16:30N 45°26' E 012°25'3 5.3
2019-Apr-16 16:00N 45°26' E 012°21'2 4.4
2019-Apr-16 15:30N 45°26' E 012°18'0 0.8
2019-Apr-16 14:59N 45°26' E 012°19'0 0.0
2019-Apr-16 14:30N 45°26' E 012°19'0 0.0
2019-Apr-16 14:00N 45°26' E 012°19'0 0.0
2019-Apr-16 13:30N 45°26' E 012°19'0 0.0
2019-Apr-16 13:00N 45°26' E 012°19'0 0.0
2019-Apr-16 12:27N 45°26' E 012°19'0 0.0
2019-Apr-16 12:00N 45°26' E 012°19'0 0.0
2019-Apr-16 11:30N 45°26' E 012°19'0 0.0
2019-Apr-16 10:57N 45°26' E 012°19'0 0.0
2019-Apr-16 10:30N 45°26' E 012°19'0 0.0
2019-Apr-16 10:00N 45°26' E 012°19'0 0.0
2019-Apr-16 09:27N 45°26' E 012°19'0 0.0
2019-Apr-16 09:00N 45°26' E 012°19'0 0.0
2019-Apr-16 08:27N 45°26' E 012°19'0 0.0
2019-Apr-16 07:51N 45°26' E 012°19'0 0.0
2019-Apr-16 07:27N 45°26' E 012°19'0 0.0
2019-Apr-16 06:57N 45°26' E 012°19'0 0.0
2019-Apr-16 06:30N 45°26' E 012°19'0 0.0
2019-Apr-16 05:57N 45°26' E 012°19'0 0.0
2019-Apr-16 05:30N 45°26' E 012°19'0 0.0
2019-Apr-16 04:57N 45°26' E 012°19'0 0.0
2019-Apr-16 04:30N 45°26' E 012°19'1 2.4
2019-Apr-16 04:00N 45°26' E 012°20'2 4.6
2019-Apr-16 03:30N 45°26' E 012°23'  
Track history (hours):
 
Tides and Currents Weather Stations Pressure Air Temp Water Temp Dewpoint Dewpoint Depression Visibility Wind Speed Wind Dir Waves Ship Positions

Costa Victoria

Last reported at 2019-Apr-26 03:30 UTC. Time now 2019-Apr-26 03:44 UTC.
Position N 45°08' E 012°52'.

Length 252 m; draft 8.1 m.

Type: Passenger vessel. MMSI: 247109000.

Date/timePositionNaut miles runAvg speedWind from/ knotsBaromVisibWave heightAir tempDewpointWater temp
2019-Apr-26 03:30N 45°08' E 012°52'816.3
2019-Apr-26 03:00N 45°05' E 013°03'917.8
2019-Apr-26 02:30N 45°01' E 013°14'917.8
2019-Apr-26 02:00N 44°54' E 013°23'918.3
2019-Apr-26 01:30N 44°47' E 013°30'1018.3
2019-Apr-26 00:59N 44°39' E 013°37'917.9
2019-Apr-26 00:30N 44°31' E 013°44'1320.1
2019-Apr-25 23:52N 44°21' E 013°54'720.2
2019-Apr-25 23:30N 44°15' E 013°59'1720.1
2019-Apr-25 22:41N 44°01' E 014°13'18 0.4
2019-Apr-23 23:41N 43°45' E 014°01'820.3
2019-Apr-23 23:18N 43°51' E 013°54'620.6
2019-Apr-23 22:59N 43°54' E 013°46'1020.5
2019-Apr-23 22:30N 43°59' E 013°35'1020.1
2019-Apr-23 22:00N 44°05' E 013°23'1019.5
2019-Apr-23 21:30N 44°11' E 013°13'1019.4
2019-Apr-23 21:00N 44°21' E 013°09'1019.2
2019-Apr-23 20:30N 44°30' E 013°04'1019.1
2019-Apr-23 20:00N 44°39' E 013°00'918.8
2019-Apr-23 19:30N 44°48' E 012°56'918.8
2019-Apr-23 19:00N 44°56' E 012°49'918.7
2019-Apr-23 18:30N 45°04' E 012°43'918.0
2019-Apr-23 18:00N 45°10' E 012°34'817.0
2019-Apr-23 17:30N 45°18' E 012°30'612.4
2019-Apr-23 17:00N 45°24' E 012°28'4 7.9
2019-Apr-23 16:31N 45°26' E 012°23'2 4.6
2019-Apr-23 16:00N 45°26' E 012°20'1 2.0
2019-Apr-23 15:28N 45°26' E 012°19'0 0.0
2019-Apr-23 14:58N 45°26' E 012°19'0 0.0
2019-Apr-23 14:22N 45°26' E 012°19'0 0.0
2019-Apr-23 13:58N 45°26' E 012°19'0 0.0
2019-Apr-23 13:28N 45°26' E 012°19'0 0.0
2019-Apr-23 12:58N 45°26' E 012°19'0 0.0
2019-Apr-23 12:28N 45°26' E 012°19'0 0.0
2019-Apr-23 11:58N 45°26' E 012°19'0 0.0
2019-Apr-23 11:28N 45°26' E 012°19'0 0.0
2019-Apr-23 10:58N 45°26' E 012°19'0 0.0
2019-Apr-23 10:28N 45°26' E 012°19'0 0.0
2019-Apr-23 09:58N 45°26' E 012°19'0 0.0
2019-Apr-23 09:28N 45°26' E 012°19'0 0.0
2019-Apr-23 08:58N 45°26' E 012°19'0 0.0
2019-Apr-23 08:25N 45°26' E 012°19'0 0.0
2019-Apr-23 07:55N 45°26' E 012°19'0 0.0
2019-Apr-23 07:28N 45°26' E 012°19'0 0.0
2019-Apr-23 06:58N 45°26' E 012°19'0 0.0
2019-Apr-23 06:28N 45°26' E 012°19'0 0.0
2019-Apr-23 05:58N 45°26' E 012°19'0 0.0
2019-Apr-23 05:28N 45°26' E 012°19'0 0.0
2019-Apr-23 04:58N 45°26' E 012°19'0 0.0
2019-Apr-23 04:30N 45°26' E 012°19'1 1.8
2019-Apr-23 04:00N 45°26' E 012°20'2 4.8
2019-Apr-23 03:30N 45°26' E 012°23'4 8.4
2019-Apr-23 03:00N 45°24' E 012°28'713.0
2019-Apr-23 02:30N 45°19' E 012°34'815.3
2019-Apr-23 02:01N 45°13' E 012°40'816.3
2019-Apr-23 01:30N 45°07' E 012°49'816.4
2019-Apr-23 01:00N 44°60' E 012°53'816.7
2019-Apr-23 00:30N 44°52' E 012°58'918.9
2019-Apr-23 00:00N 44°44' E 013°03'1119.0
2019-Apr-22 23:27N 44°34' E 013°09'  
2019-Apr-20 00:43N 43°31' E 014°20'1720.6
2019-Apr-19 23:54N 43°44' E 014°04'1020.6
2019-Apr-19 23:25N 43°51' E 013°54'3020.5
2019-Apr-19 21:58N 44°07' E 013°20'919.6
2019-Apr-19 21:30N 44°14' E 013°12'1020.3
2019-Apr-19 21:00N 44°24' E 013°07'1020.2
2019-Apr-19 20:30N 44°33' E 013°03'1020.1
2019-Apr-19 20:00N 44°43' E 012°59'1019.9
2019-Apr-19 19:30N 44°52' E 012°53'1019.9
2019-Apr-19 19:00N 45°01' E 012°47'917.5
2019-Apr-19 18:30N 45°08' E 012°39'816.6
2019-Apr-19 18:00N 45°13' E 012°31'815.3
2019-Apr-19 17:30N 45°21' E 012°30'5 9.8
2019-Apr-19 17:00N 45°25' E 012°26'3 5.7
2019-Apr-19 16:30N 45°25' E 012°22'3 5.2
2019-Apr-19 16:00N 45°26' E 012°18'0 0.9
2019-Apr-19 15:28N 45°26' E 012°19'0 0.0
2019-Apr-19 14:58N 45°26' E 012°19'0 0.0
2019-Apr-19 14:28N 45°26' E 012°19'0 0.0
2019-Apr-19 13:58N 45°26' E 012°19'0 0.0
2019-Apr-19 13:28N 45°26' E 012°19'0 0.0
2019-Apr-19 12:58N 45°26' E 012°19'0 0.0
2019-Apr-19 12:28N 45°26' E 012°19'0 0.0
2019-Apr-19 11:58N 45°26' E 012°19'0 0.0
2019-Apr-19 11:28N 45°26' E 012°19'0 0.0
2019-Apr-19 10:58N 45°26' E 012°19'0 0.0
2019-Apr-19 10:28N 45°26' E 012°19'0 0.0
2019-Apr-19 09:58N 45°26' E 012°19'0 0.0
2019-Apr-19 09:28N 45°26' E 012°19'0 0.0
2019-Apr-19 08:58N 45°26' E 012°19'0 0.0
2019-Apr-19 08:28N 45°26' E 012°19'0 0.0
2019-Apr-19 07:58N 45°26' E 012°19'0 0.0
2019-Apr-19 07:28N 45°26' E 012°19'0 0.0
2019-Apr-19 06:58N 45°26' E 012°19'0 0.0
2019-Apr-19 06:28N 45°26' E 012°19'1 2.5
2019-Apr-19 06:00N 45°26' E 012°20'3 5.2
2019-Apr-19 05:30N 45°26' E 012°24'4 8.0
2019-Apr-19 05:00N 45°24' E 012°29'713.7
2019-Apr-19 04:31N 45°18' E 012°34'816.6
2019-Apr-19 04:01N 45°12' E 012°41'917.5
2019-Apr-19 03:31N 45°07' E 012°51'917.7
2019-Apr-19 03:01N 45°03' E 013°02'917.7
2019-Apr-19 02:31N 44°59' E 013°13'917.1
2019-Apr-19 02:01N 44°54' E 013°23'918.0
2019-Apr-19 01:31N 44°46' E 013°30'1020.0
2019-Apr-19 01:00N 44°38' E 013°38'2120.1
2019-Apr-18 23:59N 44°21' E 013°54'41 0.9
2019-Apr-16 23:47N 43°41' E 014°07'517.8
2019-Apr-16 23:30N 43°44' E 014°03'1019.6
2019-Apr-16 23:00N 43°51' E 013°53'1020.2
2019-Apr-16 22:30N 43°57' E 013°42'1020.1
2019-Apr-16 22:00N 44°03' E 013°30'1020.1
2019-Apr-16 21:30N 44°08' E 013°19'1019.1
2019-Apr-16 21:00N 44°16' E 013°11'1020.0
2019-Apr-16 20:30N 44°26' E 013°06'1119.9
2019-Apr-16 19:59N 44°35' E 013°00'919.8
2019-Apr-16 19:30N 44°44' E 012°57'1019.7
2019-Apr-16 19:00N 44°53' E 012°50'918.6
2019-Apr-16 18:30N 45°01' E 012°45'816.3
2019-Apr-16 18:00N 45°08' E 012°39'816.1
2019-Apr-16 17:30N 45°14' E 012°31'815.9
2019-Apr-16 17:00N 45°22' E 012°30'5 9.5
2019-Apr-16 16:30N 45°26' E 012°25'3 5.3
2019-Apr-16 16:00N 45°26' E 012°21'2 4.4
2019-Apr-16 15:30N 45°26' E 012°18'0 0.8
2019-Apr-16 14:59N 45°26' E 012°19'0 0.0
2019-Apr-16 14:30N 45°26' E 012°19'0 0.0
2019-Apr-16 14:00N 45°26' E 012°19'0 0.0
2019-Apr-16 13:30N 45°26' E 012°19'0 0.0
2019-Apr-16 13:00N 45°26' E 012°19'0 0.0
2019-Apr-16 12:27N 45°26' E 012°19'0 0.0
2019-Apr-16 12:00N 45°26' E 012°19'0 0.0
2019-Apr-16 11:30N 45°26' E 012°19'0 0.0
2019-Apr-16 10:57N 45°26' E 012°19'0 0.0
2019-Apr-16 10:30N 45°26' E 012°19'0 0.0
2019-Apr-16 10:00N 45°26' E 012°19'0 0.0
2019-Apr-16 09:27N 45°26' E 012°19'0 0.0
2019-Apr-16 09:00N 45°26' E 012°19'0 0.0
2019-Apr-16 08:27N 45°26' E 012°19'0 0.0
2019-Apr-16 07:51N 45°26' E 012°19'0 0.0
2019-Apr-16 07:27N 45°26' E 012°19'0 0.0
2019-Apr-16 06:57N 45°26' E 012°19'0 0.0
2019-Apr-16 06:30N 45°26' E 012°19'0 0.0
2019-Apr-16 05:57N 45°26' E 012°19'0 0.0
2019-Apr-16 05:30N 45°26' E 012°19'0 0.0
2019-Apr-16 04:57N 45°26' E 012°19'0 0.0
2019-Apr-16 04:30N 45°26' E 012°19'1 2.4
2019-Apr-16 04:00N 45°26' E 012°20'2 4.6
2019-Apr-16 03:30N 45°26' E 012°23'  

Dump ship's entire track history